Latest Weather Observations for Hopetoun Airport

IDV60801

Issued at 8:31 am EST Monday 3 August 2015 (issued every 30 minutes, with the page automatically refreshed every 10 minutes)

About weather observations | Map of weather stations | Latest weather observations for VIC | Other Formats
Station Details ID: 077010 Name: HOPETOUN AIRPORT Lat: -35.72 Lon: 142.36 Height: 77.3 m
Data from the previous 72 hours. | See also: Recent months at Hopetoun Airport
Date/Time
EST
Temp
°C
App
Temp
°C
Dew
Point
Rel
Hum
%
Delta-T
°C
Wind Press
QNH
hPa
Press
MSL
hPa
Rain
since 9 am
mm
Dir
 
Spd
km/h
Gust
km/h
Spd
kts
Gust
kts
03/08:30am 8.3 4.0 7.2 93 0.5 W 19 22 10 12 1020.9 1021.0 0.0
03/08:00am 8.1 3.6 6.9 92 0.6 W 20 26 11 14 1020.4 1020.5 0.0
03/07:30am 8.0 3.0 6.6 91 0.6 W 22 30 12 16 1020.0 1020.1 0.0
03/07:00am 7.6 3.5 6.1 90 0.7 W 17 22 9 12 1019.6 1019.7 0.0
03/06:30am 7.9 2.9 6.5 91 0.6 W 22 28 12 15 1019.3 1019.4 0.0
03/06:00am 7.7 3.2 6.3 91 0.6 WNW 19 26 10 14 1018.9 1019.0 0.0
03/05:30am 7.2 2.7 6.1 93 0.5 WNW 19 22 10 12 1018.7 1018.8 0.0
03/05:00am 7.1 3.0 6.0 93 0.5 WNW 17 20 9 11 1018.3 1018.4 0.0
03/04:30am 7.2 3.5 6.3 94 0.4 W 15 19 8 10 1018.2 1018.3 0.0
03/04:00am 7.6 3.0 6.7 94 0.4 WNW 20 26 11 14 1018.1 1018.2 0.0
03/03:30am 8.1 2.9 7.2 94 0.4 WNW 24 30 13 16 1018.3 1018.4 0.0
03/03:00am 8.2 4.2 6.8 91 0.6 WNW 17 22 9 12 1018.3 1018.4 0.0
03/02:30am 8.1 3.7 6.6 90 0.7 WNW 19 22 10 12 1018.0 1018.1 0.0
03/02:00am 8.4 3.9 6.9 90 0.7 WNW 20 24 11 13 1018.2 1018.3 0.0
03/01:30am 8.5 4.0 7.0 90 0.7 NW 20 24 11 13 1018.1 1018.2 0.0
03/01:00am 8.5 4.2 7.0 90 0.7 WNW 19 22 10 12 1018.3 1018.4 0.0
03/12:30am 8.7 4.4 6.8 88 0.9 WNW 19 24 10 13 1018.4 1018.5 0.0
03/12:00am 8.9 3.3 7.0 88 0.9 WNW 26 32 14 17 1018.4 1018.5 0.0
 
Date/Time
EST
Temp
°C
App
Temp
°C
Dew
Point
Rel
Hum
%
Delta-T
°C
Wind Press
QNH
hPa
Press
MSL
hPa
Rain
since 9 am
mm
Dir
 
Spd
km/h
Gust
km/h
Spd
kts
Gust
kts
02/11:30pm 9.1 2.7 7.1 87 0.9 W 30 35 16 19 1018.4 1018.5 0.0
02/11:00pm 8.6 4.7 7.1 90 0.7 WNW 17 24 9 13 1018.5 1018.6 0.0
02/10:30pm 8.0 4.3 6.3 89 0.8 NW 15 17 8 9 1018.4 1018.5 0.0
02/10:00pm 9.0 4.5 6.8 86 1.0 WNW 20 26 11 14 1018.3 1018.4 0.0
02/09:30pm 9.4 4.2 7.2 86 1.0 WNW 24 32 13 17 1018.3 1018.4 0.0
02/09:00pm 9.1 4.3 7.5 90 0.8 WNW 22 28 12 15 1018.1 1018.2 0.0
02/08:30pm 9.5 4.3 7.4 87 1.0 WNW 24 32 13 17 1017.8 1017.9 0.0
02/08:00pm 10.2 4.3 7.6 84 1.2 WNW 28 35 15 19 1018.0 1018.1 0.0
02/07:30pm 10.0 3.3 7.4 84 1.2 W 32 44 17 24 1017.9 1018.0 0.0
02/07:00pm 10.2 4.3 7.6 84 1.2 W 28 35 15 19 1017.5 1017.6 0.0
02/06:30pm 10.6 2.7 7.8 83 1.4 WSW 39 57 21 31 1017.0 1017.1 0.0
02/06:16pm 11.7 5.6 6.4 70 2.5 W 28 56 15 30 1016.9 1017.0 0.0
02/06:00pm 12.0 5.8 6.1 67 2.8 W 28 33 15 18 1016.1 1016.2 0.0
02/05:30pm 11.9 6.1 6.2 68 2.7 W 26 33 14 18 1015.9 1016.0 0.0
02/05:00pm 12.3 6.1 6.1 66 2.9 W 28 39 15 21 1016.0 1016.1 0.0
02/04:30pm 13.1 4.0 6.0 62 3.4 W 43 56 23 30 1015.7 1015.8 0.0
02/04:25pm 13.5 6.0 6.4 62 3.4 W 35 56 19 30 1015.5 1015.6 0.0
02/04:00pm 14.0 7.1 6.6 61 3.6 W 32 43 17 23 1015.4 1015.5 0.0
02/03:30pm 14.0 6.4 5.9 58 3.9 W 35 44 19 24 1015.2 1015.3 0.0
02/03:00pm 13.9 7.4 6.7 62 3.5 W 30 41 16 22 1015.3 1015.4 0.0
02/02:30pm 13.0 5.8 6.1 63 3.3 W 33 44 18 24 1015.4 1015.5 0.0
02/02:00pm 13.3 5.4 6.4 63 3.3 W 37 46 20 25 1015.4 1015.5 0.0
02/01:30pm 13.3 5.9 6.6 64 3.2 W 35 48 19 26 1015.7 1015.8 0.0
02/01:00pm 12.2 5.3 6.5 68 2.7 W 32 41 17 22 1016.0 1016.1 0.0
02/12:30pm 12.4 5.0 6.7 68 2.7 W 35 44 19 24 1016.3 1016.3 0.0
02/12:00pm 11.5 3.9 6.0 69 2.6 W 35 43 19 23 1016.7 1016.8 0.0
02/11:30am 11.1 4.1 6.8 75 2.0 W 33 41 18 22 1017.1 1017.2 0.0
02/11:00am 10.7 4.7 7.0 78 1.8 W 28 37 15 20 1017.3 1017.4 0.0
02/10:30am 10.1 4.5 7.2 82 1.4 W 26 32 14 17 1017.5 1017.6 0.0
02/10:00am 9.0 3.7 6.6 85 1.1 W 24 30 13 16 1017.4 1017.5 0.0
02/09:30am 8.3 3.3 6.4 88 0.9 W 22 28 12 15 1017.2 1017.3 0.0
02/09:00am 6.5 2.7 5.9 96 0.3 WNW 15 20 8 11 1017.2 1017.3 4.4
02/08:30am 4.7 1.7 4.3 97 0.2 WNW 9 11 5 6 1017.3 1017.4 4.4
02/08:00am 4.8 2.2 4.4 97 0.2 WNW 7 9 4 5 1017.0 1017.1 4.4
02/07:30am 5.0 2.5 4.7 98 0.1 WNW 7 9 4 5 1016.7 1016.8 4.4
02/07:00am 5.3 2.5 5.0 98 0.1 W 9 11 5 6 1016.5 1016.6 4.4
02/06:30am 5.5 2.7 5.2 98 0.1 W 9 13 5 7 1016.5 1016.6 4.4
02/06:00am 5.7 3.0 5.4 98 0.1 W 9 11 5 6 1016.5 1016.6 4.4
02/05:30am 5.7 3.5 5.3 97 0.2 NW 6 7 3 4 1016.1 1016.2 4.4
02/05:00am 5.9 3.7 5.3 96 0.3 NNW 6 6 3 3 1016.0 1016.1 4.4
02/04:30am 6.1 3.9 5.5 96 0.3 W 6 6 3 3 1016.4 1016.5 4.4
02/04:00am 6.1 3.9 5.4 95 0.3 WSW 6 7 3 4 1016.8 1016.9 4.2
02/03:30am 6.1 3.7 5.2 94 0.4 SW 7 9 4 5 1016.9 1017.0 4.0
02/03:00am 6.3 3.6 5.6 95 0.3 SSW 9 11 5 6 1017.0 1017.1 4.0
02/02:30am 6.5 3.0 5.6 94 0.4 SSW 13 17 7 9 1017.0 1017.1 3.4
02/02:00am 6.7 3.5 5.2 90 0.7 SSW 11 17 6 9 1017.1 1017.2 3.2
02/01:30am 7.0 3.9 5.5 90 0.7 SSW 11 13 6 7 1017.2 1017.3 3.2
02/01:00am 7.3 3.4 5.3 87 0.9 SSW 15 19 8 10 1017.1 1017.2 3.2
02/12:30am 7.0 4.8 6.1 94 0.4 SW 7 9 4 5 1017.0 1017.1 3.2
02/12:00am 7.2 5.2 6.3 94 0.4 SW 6 6 3 3 1016.9 1017.0 3.2
 
Date/Time
EST
Temp
°C
App
Temp
°C
Dew
Point
Rel
Hum
%
Delta-T
°C
Wind Press
QNH
hPa
Press
MSL
hPa
Rain
since 9 am
mm
Dir
 
Spd
km/h
Gust
km/h
Spd
kts
Gust
kts
01/11:30pm 7.5 5.9 6.3 92 0.5 S 4 4 2 2 1016.8 1016.9 3.2
01/11:00pm 7.7 6.2 6.8 94 0.4 SW 4 7 2 4 1017.1 1017.2 3.2
01/10:30pm 7.7 6.9 6.5 92 0.6 CALM 0 0 0 0 1017.0 1017.1 3.2
01/10:00pm 7.8 6.3 6.6 92 0.6 SSW 4 6 2 3 1017.0 1017.1 3.2
01/09:30pm 7.8 5.9 6.6 92 0.6 S 6 7 3 4 1017.2 1017.3 3.2
01/09:00pm 8.0 6.2 7.2 95 0.4 SW 6 7 3 4 1017.8 1017.9 3.2
01/08:30pm 8.2 6.8 7.3 94 0.4 SSW 4 4 2 2 1016.9 1017.0 3.0
01/08:00pm 8.2 7.5 7.0 92 0.6 CALM 0 0 0 0 1017.5 1017.6 3.0
01/07:30pm 8.2 7.1 6.8 91 0.7 WSW 2 4 1 2 1017.2 1017.3 3.0
01/07:00pm 8.4 6.9 7.0 91 0.7 NW 4 6 2 3 1017.5 1017.6 3.0
01/06:30pm 8.5 6.7 7.3 92 0.6 N 6 7 3 4 1017.0 1017.1 3.0
01/06:00pm 8.8 7.0 7.1 89 0.8 WNW 6 6 3 3 1017.2 1017.3 3.0
01/05:30pm 9.3 7.1 6.0 80 1.5 S 7 9 4 5 1015.8 1015.9 2.6
01/05:00pm 9.5 7.8 5.9 78 1.7 S 4 6 2 3 1016.3 1016.3 2.6
01/04:30pm 9.7 7.5 6.2 79 1.6 SSW 7 11 4 6 1016.0 1016.1 2.6
01/04:00pm 10.1 7.7 6.8 80 1.6 WSW 9 13 5 7 1016.7 1016.8 2.6
01/03:30pm 10.2 8.0 6.2 76 1.9 S 7 13 4 7 1015.1 1015.2 2.6
01/03:00pm 9.9 7.2 7.3 84 1.2 SW 11 15 6 8 1017.1 1017.2 2.6
01/02:53pm 9.8 6.7 7.1 83 1.3 SW 13 15 7 8 1017.4 1017.5 2.6
01/02:30pm 9.7 6.5 7.0 83 1.3 S 13 19 7 10 1015.3 1015.4 2.6
01/02:00pm 10.3 7.8 6.6 78 1.7 SSW 9 15 5 8 1016.0 1016.1 2.0
01/01:30pm 10.4 6.4 6.5 77 1.8 SSW 17 24 9 13 1016.6 1016.7 2.0
01/01:00pm 10.4 8.1 7.3 81 1.5 S 9 13 5 7 1015.4 1015.5 2.0
01/12:30pm 10.4 6.4 6.7 78 1.7 SSW 17 24 9 13 1015.8 1015.9 2.0
01/12:00pm 10.1 6.3 7.5 84 1.2 SSW 17 26 9 14 1015.8 1015.9 1.8
01/11:30am 10.1 6.8 8.2 88 0.9 S 15 20 8 11 1015.3 1015.4 1.6
01/11:00am 9.7 7.0 8.8 94 0.4 SSW 13 20 7 11 1015.5 1015.6 1.6
01/10:30am 9.6 6.5 9.0 96 0.3 SSW 15 22 8 12 1015.8 1015.9 1.2
01/10:00am 9.8 5.8 9.0 95 0.4 SSW 20 32 11 17 1015.6 1015.7 0.2
01/09:30am 10.4 5.8 9.5 94 0.5 SSW 24 37 13 20 1015.0 1015.2 0.0
01/09:00am 11.4 7.1 10.9 97 0.3 SW 24 30 13 16 1014.3 1014.5 1.2
01/08:30am 12.0 6.8 11.5 97 0.3 W 30 41 16 22 1013.7 1013.9 1.2
01/08:00am 13.1 9.4 12.8 98 0.2 WNW 24 30 13 16 1012.9 1013.1 0.8
01/07:30am 12.8 10.0 12.5 98 0.2 WNW 19 24 10 13 1012.4 1012.6 0.8
01/07:00am 12.6 9.4 12.0 96 0.3 NW 20 26 11 14 1011.9 1012.1 0.8
01/06:30am 12.5 8.6 10.9 90 0.8 NW 22 28 12 15 1011.7 1011.8 0.6
01/06:00am 13.0 8.9 10.0 82 1.5 NW 22 28 12 15 1011.4 1011.5 0.0
01/05:30am 13.6 9.1 8.4 71 2.6 NW 22 28 12 15 1011.0 1011.1 0.0
01/05:00am 13.4 8.7 7.8 69 2.8 NW 22 28 12 15 1010.9 1011.0 0.0
01/04:30am 12.9 8.5 7.4 69 2.7 NNW 20 24 11 13 1011.0 1011.1 0.0
01/04:00am 12.7 8.8 7.2 69 2.7 NNW 17 20 9 11 1011.2 1011.3 0.0
01/03:30am 12.9 8.4 7.1 68 2.8 NNW 20 26 11 14 1011.5 1011.6 0.0
01/03:00am 12.0 7.4 6.5 69 2.6 NNW 20 24 11 13 1011.9 1012.1 0.0
01/02:30am 11.5 7.4 6.4 71 2.4 N 17 24 9 13 1012.3 1012.5 0.0
01/02:00am 11.0 6.9 6.0 71 2.3 N 17 24 9 13 1012.1 1012.3 0.0
01/01:30am 10.7 6.1 5.7 71 2.3 N 19 24 10 13 1012.2 1012.4 0.0
01/01:00am 9.9 6.0 5.3 73 2.1 NNE 15 19 8 10 1012.9 1013.1 0.0
01/12:30am 9.6 6.3 4.8 72 2.2 NNE 11 15 6 8 1013.5 1013.7 0.0
01/12:00am 9.5 5.8 4.5 71 2.2 NNE 13 17 7 9 1014.0 1014.2 0.0
 
Date/Time
EST
Temp
°C
App
Temp
°C
Dew
Point
Rel
Hum
%
Delta-T
°C
Wind Press
QNH
hPa
Press
MSL
hPa
Rain
since 9 am
mm
Dir
 
Spd
km/h
Gust
km/h
Spd
kts
Gust
kts
31/11:30pm 9.8 5.3 4.2 68 2.5 NNE 17 22 9 12 1014.6 1014.8 0.0
31/11:00pm 9.9 5.0 4.1 67 2.6 NNE 19 22 10 12 1015.1 1015.3 0.0
31/10:30pm 9.9 4.8 4.1 67 2.6 NNE 20 24 11 13 1015.2 1015.4 0.0
31/10:00pm 9.9 4.4 4.1 67 2.6 NNE 22 30 12 16 1015.1 1015.3 0.0
31/09:30pm 10.2 4.7 4.1 66 2.7 NNE 22 28 12 15 1015.6 1015.8 0.0
31/09:00pm 9.8 4.9 4.2 68 2.5 NNE 19 24 10 13 1015.9 1016.1 0.0
31/08:30pm 9.3 5.6 4.3 71 2.2 NE 13 17 7 9 1016.7 1016.8 0.0
31/08:00pm 9.3 5.5 4.1 70 2.3 NNE 13 17 7 9 1017.1 1017.2 0.0
31/07:30pm 9.0 5.9 3.8 70 2.3 NE 9 11 5 6 1017.5 1017.6 0.0
31/07:00pm 8.1 5.4 3.8 74 1.9 ENE 7 9 4 5 1017.5 1017.6 0.0
31/06:30pm 7.5 5.2 2.8 72 2.0 NE 4 6 2 3 1017.4 1017.5 0.0
31/06:00pm 8.8 5.9 2.4 64 2.7 NNE 7 7 4 4 1017.1 1017.2 0.0
31/05:30pm 10.4 7.6 3.0 60 3.2 N 7 9 4 5 1017.3 1017.4 0.0
31/05:00pm 11.5 7.0 2.3 53 4.0 N 15 20 8 11 1017.1 1017.2 0.0
31/04:30pm 11.7 6.9 2.5 53 4.0 N 17 22 9 12 1017.2 1017.3 0.0
31/04:00pm 11.7 6.5 2.2 52 4.1 N 19 24 10 13 1017.5 1017.6 0.0
31/03:30pm 12.7 7.3 2.6 50 4.4 NNW 20 26 11 14 1017.9 1018.0 0.0
31/03:00pm 12.3 7.1 2.2 50 4.4 N 19 24 10 13 1018.2 1018.3 0.0
31/02:30pm 12.4 7.5 2.0 49 4.5 N 17 24 9 13 1018.6 1018.7 0.0
31/02:00pm 12.1 7.9 1.4 48 4.5 NNW 13 20 7 11 1018.9 1019.0 0.0
31/01:30pm 11.8 7.1 0.6 46 4.7 N 15 20 8 11 1019.6 1019.7 0.0
31/01:00pm 11.9 7.7 1.8 50 4.3 N 13 24 7 13 1020.4 1020.5 0.0
31/12:30pm 10.7 6.8 1.0 51 4.0 NNE 11 17 6 9 1021.0 1021.1 0.0
31/12:00pm 10.5 7.2 0.3 49 4.1 NNW 7 13 4 7 1021.8 1021.9 0.0
31/11:30am 10.3 7.6 0.6 51 4.0 NW 4 7 2 4 1022.2 1022.3 0.0
31/11:00am 9.2 8.0 4.6 73 2.0 CALM 0 4 0 2 1022.9 1023.1 0.0
31/10:30am 7.7 6.1 4.3 79 1.5 NNE 2 4 1 2 1023.2 1023.4 0.0
31/10:00am 5.9 4.5 5.6 98 0.1 W 2 4 1 2 1023.3 1023.5 0.0
31/09:30am 4.5 2.5 4.4 99 0.0 WNW 4 6 2 3 1023.2 1023.4 0.0
31/09:00am 2.4 0.4 2.3 99 0.0 N 2 4 1 2 1022.8 1023.0 0.4

Other Formats:

Comma delimited format used in spreadsheet applications
http://www.bom.gov.au/fwo/IDV60801/IDV60801.94838.axf

JavaScript Object Notation format (JSON) in row-major order
http://www.bom.gov.au/fwo/IDV60801/IDV60801.94838.json